createdAt,value
2019-03-11T00:01:02.196Z,97.20
2019-03-11T00:03:31.162Z,97.30
2019-03-11T00:06:00.155Z,97.20
2019-03-11T00:08:29.148Z,97.20
2019-03-11T00:10:58.141Z,97.30
2019-03-11T00:13:27.134Z,97.20
2019-03-11T00:15:56.128Z,97.10
2019-03-11T00:18:25.120Z,97.10
2019-03-11T00:20:55.035Z,97.10
2019-03-11T00:23:24.030Z,97.20
2019-03-11T00:25:53.022Z,97.30
2019-03-11T00:28:22.020Z,97.40
2019-03-11T00:30:51.009Z,97.50
2019-03-11T00:33:20.047Z,97.60
2019-03-11T00:35:48.997Z,97.80
2019-03-11T00:38:18.089Z,98.30
2019-03-11T00:40:46.981Z,98.00
2019-03-11T00:43:15.975Z,98.10
2019-03-11T00:45:44.968Z,98.10
2019-03-11T00:48:17.032Z,98.20
2019-03-11T00:50:46.026Z,98.40
2019-03-11T00:53:15.189Z,98.50
2019-03-11T00:55:44.379Z,98.60
2019-03-11T00:58:13.317Z,98.80
2019-03-11T01:00:42.308Z,99.10
2019-03-11T01:03:11.301Z,99.30
2019-03-11T01:05:40.292Z,99.30
2019-03-11T01:08:09.289Z,99.40
2019-03-11T01:10:38.287Z,99.40
2019-03-11T01:13:07.580Z,99.20
2019-03-11T01:15:36.574Z,99.20
2019-03-11T01:18:05.567Z,99.30
2019-03-11T01:20:34.559Z,99.20
2019-03-11T01:23:03.555Z,99.20
2019-03-11T01:25:32.546Z,99.30
2019-03-11T01:28:01.537Z,99.20
2019-03-11T01:30:30.533Z,99.20
2019-03-11T01:32:59.525Z,99.20
2019-03-11T01:35:28.519Z,99.20
2019-03-11T01:37:57.512Z,99.30
2019-03-11T01:40:26.509Z,99.30
2019-03-11T01:42:55.499Z,99.40
2019-03-11T01:45:24.491Z,99.80
2019-03-11T01:47:53.484Z,99.40
2019-03-11T01:50:22.494Z,99.40
2019-03-11T01:52:51.470Z,99.50
2019-03-11T01:55:20.463Z,99.60
2019-03-11T01:57:49.457Z,99.80
2019-03-11T02:00:19.679Z,99.90
2019-03-11T02:02:48.672Z,99.90
2019-03-11T02:05:17.664Z,99.90
2019-03-11T02:07:46.660Z,99.90
2019-03-11T02:10:16.881Z,99.90
2019-03-11T02:12:46.183Z,99.90
2019-03-11T02:15:16.407Z,99.90
2019-03-11T02:17:45.395Z,99.90
2019-03-11T02:20:18.296Z,99.90
2019-03-11T02:22:48.300Z,99.90
2019-03-11T02:25:16.984Z,99.90
2019-03-11T02:27:45.976Z,99.90
2019-03-11T02:30:18.673Z,99.90
2019-03-11T02:32:49.496Z,99.90
2019-03-11T02:35:31.696Z,99.90
2019-03-11T02:38:00.689Z,99.90
2019-03-11T02:40:29.681Z,99.90
2019-03-11T02:42:58.691Z,99.90
2019-03-11T02:45:27.668Z,99.70
2019-03-11T02:47:56.663Z,99.40
2019-03-11T02:50:25.656Z,99.00
2019-03-11T02:52:54.651Z,98.60
2019-03-11T02:55:23.644Z,98.00
2019-03-11T02:57:52.653Z,97.00
2019-03-11T03:00:21.629Z,96.20
2019-03-11T03:02:54.930Z,96.10
2019-03-11T03:05:25.452Z,96.10
2019-03-11T03:07:54.445Z,95.70
2019-03-11T03:10:23.437Z,95.70
2019-03-11T03:12:52.438Z,95.80
2019-03-11T03:15:21.427Z,95.90
2019-03-11T03:17:50.428Z,96.00
2019-03-11T03:20:19.411Z,96.10
2019-03-11T03:22:48.405Z,96.10
2019-03-11T03:25:32.246Z,96.20
2019-03-11T03:27:47.644Z,96.00
2019-03-11T03:30:18.053Z,95.80
2019-03-11T03:32:46.859Z,95.60
2019-03-11T03:35:16.052Z,95.50
2019-03-11T03:37:45.434Z,95.30
2019-03-11T03:40:17.226Z,95.30
2019-03-11T03:42:46.213Z,94.80
2019-03-11T03:45:34.227Z,95.00
2019-03-11T03:48:03.223Z,95.00
2019-03-11T03:50:39.623Z,95.00
2019-03-11T03:53:08.892Z,95.10
2019-03-11T03:55:37.877Z,94.80
2019-03-11T03:58:06.895Z,94.60
2019-03-11T04:00:35.864Z,94.90
2019-03-11T04:03:04.861Z,94.70
2019-03-11T04:05:33.852Z,94.40
2019-03-11T04:08:02.844Z,94.50
2019-03-11T04:10:32.797Z,94.60
2019-03-11T04:13:02.367Z,94.70
2019-03-11T04:15:31.360Z,94.70
2019-03-11T04:18:00.373Z,94.80
2019-03-11T04:20:29.347Z,95.00
2019-03-11T04:23:00.489Z,95.10
2019-03-11T04:25:30.405Z,95.10
2019-03-11T04:27:59.396Z,95.20
2019-03-11T04:30:28.928Z,95.20
2019-03-11T04:32:59.844Z,94.90
2019-03-11T04:35:28.855Z,95.10
2019-03-11T04:37:57.829Z,95.10
2019-03-11T04:40:26.823Z,95.00
2019-03-11T04:42:55.656Z,95.10
2019-03-11T04:45:24.500Z,95.20
2019-03-11T04:47:53.493Z,95.30
2019-03-11T04:50:22.486Z,95.00
2019-03-11T04:52:51.480Z,94.90
2019-03-11T04:55:20.473Z,94.90
2019-03-11T04:57:54.077Z,95.10
2019-03-11T05:00:26.242Z,94.90
2019-03-11T05:02:55.131Z,94.70
2019-03-11T05:05:25.648Z,94.70
2019-03-11T05:07:54.656Z,94.70
2019-03-11T05:10:24.676Z,94.80
2019-03-11T05:12:53.564Z,94.90
2019-03-11T05:15:22.557Z,95.00
2019-03-11T05:17:51.555Z,95.10
2019-03-11T05:20:20.543Z,95.10
2019-03-11T05:22:49.536Z,95.30
2019-03-11T05:25:18.529Z,95.20
2019-03-11T05:27:47.524Z,95.30
2019-03-11T05:30:18.357Z,95.30
2019-03-11T05:32:47.354Z,95.40
2019-03-11T05:35:16.344Z,95.50
2019-03-11T05:37:45.337Z,95.40
2019-03-11T05:40:19.437Z,95.30
2019-03-11T05:42:48.239Z,95.50
2019-03-11T05:45:18.368Z,95.20
2019-03-11T05:47:47.458Z,95.20
2019-03-11T05:50:18.600Z,95.00
2019-03-11T05:52:49.127Z,94.40
2019-03-11T05:55:18.122Z,94.10
2019-03-11T05:57:47.113Z,93.60
2019-03-11T06:00:21.637Z,93.20
2019-03-11T06:02:50.631Z,93.30
2019-03-11T06:05:19.624Z,93.10
2019-03-11T06:07:48.616Z,93.10
2019-03-11T06:10:21.988Z,93.10
2019-03-11T06:12:50.906Z,93.30
2019-03-11T06:15:19.896Z,92.60
2019-03-11T06:17:49.007Z,92.10
2019-03-11T06:20:22.798Z,92.60
2019-03-11T06:22:51.792Z,92.70
2019-03-11T06:25:20.791Z,92.40
2019-03-11T06:28:00.841Z,92.90
2019-03-11T06:30:29.833Z,93.10
2019-03-11T06:32:58.828Z,93.40
2019-03-11T06:35:27.816Z,93.60
2019-03-11T06:37:56.809Z,93.50
2019-03-11T06:40:25.807Z,92.80
2019-03-11T06:42:54.796Z,92.90
2019-03-11T06:45:24.916Z,92.80
2019-03-11T06:47:53.705Z,92.50
2019-03-11T06:50:22.700Z,92.50
2019-03-11T06:52:51.693Z,92.10
2019-03-11T06:55:20.686Z,92.30
2019-03-11T06:57:49.677Z,92.20
2019-03-11T07:00:19.595Z,92.50
2019-03-11T07:02:48.591Z,92.30
2019-03-11T07:05:20.405Z,92.20
2019-03-11T07:07:48.107Z,91.60
2019-03-11T07:10:17.714Z,91.80
2019-03-11T07:12:46.708Z,91.80
2019-03-11T07:15:16.627Z,92.10
2019-03-11T07:17:49.916Z,92.10
2019-03-11T07:20:19.524Z,91.90
2019-03-11T07:22:48.501Z,91.60
2019-03-11T07:25:17.511Z,91.30
2019-03-11T07:27:46.197Z,91.20
2019-03-11T07:30:19.081Z,91.00
2019-03-11T07:32:49.098Z,90.90
2019-03-11T07:35:21.778Z,90.50
2019-03-11T07:37:53.659Z,90.00
2019-03-11T07:40:29.563Z,90.00
2019-03-11T07:42:53.068Z,89.00
2019-03-11T07:45:22.052Z,87.60
2019-03-11T07:47:57.496Z,87.90
2019-03-11T07:50:26.336Z,88.20
2019-03-11T07:52:57.940Z,88.90
2019-03-11T07:55:28.453Z,88.20
2019-03-11T07:57:59.181Z,88.90
2019-03-11T08:00:29.908Z,87.70
2019-03-11T08:02:59.086Z,88.00
2019-03-11T08:05:28.047Z,85.20
2019-03-11T08:07:57.007Z,85.60
2019-03-11T08:10:26.783Z,86.90
2019-03-11T08:12:56.710Z,85.00
2019-03-11T08:15:25.560Z,85.10
2019-03-11T08:17:54.483Z,83.50
2019-03-11T08:20:23.197Z,84.90
2019-03-11T08:22:51.901Z,83.90
2019-03-11T08:25:20.689Z,84.00
2019-03-11T08:27:49.375Z,83.10
2019-03-11T08:30:22.368Z,83.50
2019-03-11T08:32:51.361Z,83.30
2019-03-11T08:35:20.186Z,83.90
2019-03-11T08:37:49.036Z,83.40
2019-03-11T08:40:20.178Z,82.90
2019-03-11T08:42:49.171Z,82.10
2019-03-11T08:45:26.593Z,82.10
2019-03-11T08:47:55.452Z,81.90
2019-03-11T08:50:24.458Z,81.90
2019-03-11T08:52:55.733Z,80.40
2019-03-11T08:55:24.585Z,80.30
2019-03-11T08:57:53.575Z,81.40
2019-03-11T09:00:25.966Z,82.50
2019-03-11T09:02:55.438Z,84.00
2019-03-11T09:05:24.242Z,82.50
2019-03-11T09:07:53.234Z,81.50
2019-03-11T09:10:22.108Z,80.80
2019-03-11T09:12:50.800Z,80.30
2019-03-11T09:15:21.279Z,79.30
2019-03-11T09:17:50.134Z,79.60
2019-03-11T09:20:19.156Z,79.20
2019-03-11T09:22:48.117Z,78.90
2019-03-11T09:25:22.333Z,77.90
2019-03-11T09:27:51.387Z,80.90
2019-03-11T09:30:23.401Z,79.10
2019-03-11T09:32:54.840Z,78.00
2019-03-11T09:35:25.251Z,79.50
2019-03-11T09:37:55.392Z,78.50
2019-03-11T09:40:24.309Z,78.20
2019-03-11T09:42:53.599Z,76.30
2019-03-11T09:45:24.758Z,77.30
2019-03-11T09:47:53.408Z,78.40
2019-03-11T09:50:22.402Z,77.10
2019-03-11T09:52:51.395Z,73.90
2019-03-11T09:55:22.121Z,73.60
2019-03-11T09:57:51.307Z,73.90
2019-03-11T10:00:25.636Z,72.70
2019-03-11T10:02:54.434Z,73.70
2019-03-11T10:05:24.963Z,74.30
2019-03-11T10:07:54.904Z,74.90
2019-03-11T10:10:26.725Z,77.60
2019-03-11T10:12:55.629Z,76.40
2019-03-11T10:15:24.635Z,76.50
2019-03-11T10:17:53.616Z,77.40
2019-03-11T10:20:22.610Z,76.70
2019-03-11T10:22:51.839Z,77.70
2019-03-11T10:25:20.992Z,78.10
2019-03-11T10:27:51.434Z,78.70
2019-03-11T10:30:24.703Z,78.70
2019-03-11T10:32:54.038Z,78.10
2019-03-11T10:35:32.330Z,80.50
2019-03-11T10:37:56.720Z,82.50
2019-03-11T10:40:28.848Z,82.10
2019-03-11T10:42:58.001Z,82.30
2019-03-11T10:45:31.843Z,81.90
2019-03-11T10:47:57.830Z,82.30
2019-03-11T10:50:27.131Z,77.70
2019-03-11T10:52:57.641Z,74.50
2019-03-11T10:55:27.858Z,72.90
2019-03-11T10:57:57.181Z,71.70
2019-03-11T11:00:28.945Z,71.40
2019-03-11T11:02:57.986Z,70.50
2019-03-11T11:05:27.232Z,67.20
2019-03-11T11:07:56.531Z,67.90
2019-03-11T11:10:28.581Z,67.00
2019-03-11T11:12:58.425Z,67.30
2019-03-11T11:15:32.425Z,67.90
2019-03-11T11:18:01.720Z,67.90
2019-03-11T11:20:31.024Z,71.80
2019-03-11T11:23:00.041Z,72.50
2019-03-11T11:25:30.582Z,74.40
2019-03-11T11:28:01.371Z,74.50
2019-03-11T11:30:32.755Z,73.10
2019-03-11T11:33:03.055Z,71.00
2019-03-11T11:35:33.308Z,68.00
2019-03-11T11:38:11.504Z,67.40
2019-03-11T11:40:38.328Z,67.90
2019-03-11T11:43:07.631Z,70.00
2019-03-11T11:45:40.608Z,69.80
2019-03-11T11:48:09.917Z,69.00
2019-03-11T11:50:39.262Z,69.20
2019-03-11T11:53:11.588Z,71.30
2019-03-11T11:55:40.888Z,71.30
2019-03-11T11:58:10.189Z,71.50
2019-03-11T12:00:41.024Z,70.60
2019-03-11T12:03:10.002Z,70.20
2019-03-11T12:05:39.319Z,71.00
2019-03-11T12:08:10.156Z,70.20
2019-03-11T12:10:38.533Z,70.90
2019-03-11T12:13:07.435Z,69.50
2019-03-11T12:15:36.279Z,69.40
2019-03-11T12:18:05.515Z,71.20
2019-03-11T12:20:36.198Z,69.50
2019-03-11T12:23:05.068Z,68.80
2019-03-11T12:25:34.033Z,68.40
2019-03-11T12:28:03.333Z,67.60
2019-03-11T12:30:33.865Z,66.90
2019-03-11T12:33:02.855Z,62.50
2019-03-11T12:35:32.153Z,63.70
2019-03-11T12:38:01.068Z,65.00
2019-03-11T12:40:30.056Z,65.30
2019-03-11T12:42:58.792Z,66.50
2019-03-11T12:45:28.126Z,67.30
2019-03-11T12:47:57.427Z,66.70
2019-03-11T12:50:35.361Z,67.40
2019-03-11T12:53:04.633Z,65.50
2019-03-11T12:55:33.563Z,63.20
2019-03-11T12:58:04.478Z,64.40
2019-03-11T13:00:34.376Z,63.10
2019-03-11T13:03:03.289Z,65.70
2019-03-11T13:05:32.194Z,66.10
2019-03-11T13:08:01.359Z,66.10
2019-03-11T13:10:34.340Z,67.30
2019-03-11T13:13:11.924Z,67.20
2019-03-11T13:15:40.661Z,68.40
2019-03-11T13:18:32.930Z,70.60
2019-03-11T13:21:04.105Z,72.40
2019-03-11T13:23:33.135Z,73.30
2019-03-11T13:26:02.404Z,73.00
2019-03-11T13:28:36.582Z,70.20
2019-03-11T13:31:05.541Z,70.50
2019-03-11T13:33:35.837Z,70.40
2019-03-11T13:36:06.360Z,69.80
2019-03-11T13:38:35.477Z,69.10
2019-03-11T13:41:04.960Z,69.30
2019-03-11T13:43:33.965Z,70.50
2019-03-11T13:46:03.253Z,71.10
2019-03-11T13:48:36.837Z,72.30
2019-03-11T13:51:06.175Z,69.30
2019-03-11T13:53:37.169Z,68.30
2019-03-11T13:56:07.181Z,68.60
2019-03-11T13:58:36.176Z,69.00
2019-03-11T14:01:08.168Z,69.60
2019-03-11T14:03:37.275Z,71.30
2019-03-11T14:06:06.568Z,71.00
2019-03-11T14:08:35.967Z,71.50
2019-03-11T14:11:04.850Z,72.80
2019-03-11T14:13:33.771Z,75.70
2019-03-11T14:16:05.304Z,77.80
2019-03-11T14:18:34.305Z,80.40
2019-03-11T14:21:06.601Z,80.80
2019-03-11T14:23:37.225Z,80.80
2019-03-11T14:26:06.500Z,79.50
2019-03-11T14:28:37.138Z,79.00
2019-03-11T14:31:08.476Z,78.40
2019-03-11T14:33:37.395Z,79.80
2019-03-11T14:36:06.775Z,79.40
2019-03-11T14:38:35.804Z,79.10
2019-03-11T14:41:10.856Z,79.20
2019-03-11T14:43:38.589Z,79.70
2019-03-11T14:46:07.637Z,80.50
2019-03-11T14:48:36.961Z,80.90
2019-03-11T14:51:13.813Z,81.30
2019-03-11T14:53:42.935Z,81.00
2019-03-11T14:56:12.237Z,82.60
2019-03-11T14:58:41.538Z,83.10
2019-03-11T15:01:10.442Z,84.30
2019-03-11T15:03:39.168Z,83.40
2019-03-11T15:06:09.100Z,82.80
2019-03-11T15:08:38.110Z,82.60
2019-03-11T15:11:07.104Z,83.40
2019-03-11T15:13:37.326Z,83.10
2019-03-11T15:16:06.401Z,82.70
2019-03-11T15:18:35.623Z,82.90
2019-03-11T15:21:04.614Z,82.40
2019-03-11T15:23:33.486Z,82.00
2019-03-11T15:26:02.614Z,82.90
2019-03-11T15:28:31.913Z,82.90
2019-03-11T15:31:10.130Z,82.20
2019-03-11T15:33:36.717Z,82.20
2019-03-11T15:36:03.204Z,82.70
2019-03-11T15:38:32.497Z,82.90
2019-03-11T15:41:03.045Z,83.20
2019-03-11T15:43:32.098Z,84.10
2019-03-11T15:46:02.245Z,87.30
2019-03-11T15:48:31.539Z,87.10
2019-03-11T15:51:00.477Z,87.80
2019-03-11T15:53:29.538Z,87.80
2019-03-11T15:55:58.929Z,86.40
2019-03-11T15:58:27.783Z,83.20
2019-03-11T16:00:56.799Z,81.20
2019-03-11T16:03:35.746Z,78.90
2019-03-11T16:05:56.629Z,77.50
2019-03-11T16:08:25.627Z,78.20
2019-03-11T16:10:55.086Z,76.80
2019-03-11T16:13:25.147Z,77.60
2019-03-11T16:15:54.138Z,77.50
2019-03-11T16:18:23.132Z,77.80
2019-03-11T16:20:52.124Z,78.30
2019-03-11T16:23:21.447Z,78.00
2019-03-11T16:25:50.418Z,78.60
2019-03-11T16:28:19.486Z,78.10
2019-03-11T16:30:48.320Z,78.20
2019-03-11T16:33:17.300Z,78.80
2019-03-11T16:35:46.712Z,79.10
2019-03-11T16:38:15.712Z,79.30
2019-03-11T16:40:46.542Z,79.20
2019-03-11T16:43:15.661Z,84.20
2019-03-11T16:45:44.834Z,86.90
2019-03-11T16:48:19.786Z,87.60
2019-03-11T16:50:47.736Z,86.30
2019-03-11T16:53:19.209Z,87.00
2019-03-11T16:55:49.825Z,85.70
2019-03-11T16:58:18.402Z,86.40
2019-03-11T17:00:49.048Z,85.60
2019-03-11T17:03:19.018Z,84.90
2019-03-11T17:05:48.454Z,84.90
2019-03-11T17:08:17.756Z,85.10
2019-03-11T17:10:46.992Z,84.90
2019-03-11T17:13:16.012Z,85.80
2019-03-11T17:15:48.679Z,86.40
2019-03-11T17:18:18.029Z,87.30
2019-03-11T17:20:47.350Z,87.40
2019-03-11T17:23:16.241Z,87.10
2019-03-11T17:25:51.494Z,88.00
2019-03-11T17:28:21.687Z,88.10
2019-03-11T17:30:51.046Z,87.80
2019-03-11T17:33:20.287Z,87.70
2019-03-11T17:35:49.582Z,87.60
2019-03-11T17:38:18.883Z,87.60
2019-03-11T17:40:48.185Z,87.10
2019-03-11T17:43:18.370Z,84.30
2019-03-11T17:45:47.480Z,82.80
2019-03-11T17:48:18.667Z,82.10
2019-03-11T17:50:49.685Z,80.90
2019-03-11T17:53:20.199Z,81.10
2019-03-11T17:55:49.633Z,81.40
2019-03-11T17:58:18.548Z,81.80
2019-03-11T18:00:55.608Z,81.60
2019-03-11T18:03:20.211Z,82.60
2019-03-11T18:05:49.955Z,82.70
2019-03-11T18:08:20.290Z,82.70
2019-03-11T18:10:50.449Z,83.00
2019-03-11T18:13:25.492Z,81.50
2019-03-11T18:15:56.109Z,81.50
2019-03-11T18:18:32.678Z,82.30
2019-03-11T18:20:59.760Z,81.90
2019-03-11T18:23:30.723Z,81.40
2019-03-11T18:26:02.015Z,81.20
2019-03-11T18:28:32.848Z,79.10
2019-03-11T18:31:01.819Z,79.10
2019-03-11T18:33:34.283Z,79.40
2019-03-11T18:36:08.152Z,80.30
2019-03-11T18:38:37.428Z,80.10
2019-03-11T18:41:06.410Z,79.70
2019-03-11T18:43:43.009Z,79.60
2019-03-11T18:46:11.484Z,78.20
2019-03-11T18:48:42.640Z,79.20
2019-03-11T18:51:11.931Z,78.60
2019-03-11T18:53:41.254Z,81.60
2019-03-11T18:56:10.539Z,85.10
2019-03-11T18:58:40.133Z,87.00
2019-03-11T19:01:10.346Z,87.60
2019-03-11T19:03:39.649Z,87.40
2019-03-11T19:06:08.622Z,87.90
2019-03-11T19:08:37.978Z,86.30
2019-03-11T19:11:10.338Z,84.70
2019-03-11T19:13:39.638Z,83.20
2019-03-11T19:16:08.713Z,82.20
2019-03-11T19:18:39.153Z,82.20
2019-03-11T19:21:09.712Z,81.90
2019-03-11T19:23:43.654Z,80.30
2019-03-11T19:26:17.519Z,79.80
2019-03-11T19:28:51.870Z,80.00
2019-03-11T19:31:43.359Z,80.90
2019-03-11T19:34:12.749Z,80.10
2019-03-11T19:36:42.633Z,80.40
2019-03-11T19:39:14.052Z,80.10
2019-03-11T19:41:45.981Z,79.70
2019-03-11T19:44:17.026Z,79.50
2019-03-11T19:46:46.324Z,79.30
2019-03-11T19:49:15.945Z,78.10
2019-03-11T19:51:45.879Z,78.20
2019-03-11T19:54:15.158Z,76.90
2019-03-11T19:56:46.875Z,77.50
2019-03-11T19:59:15.848Z,77.90
2019-03-11T20:01:45.752Z,78.40
2019-03-11T20:04:15.082Z,79.50
2019-03-11T20:06:50.889Z,81.00
2019-03-11T20:09:20.344Z,81.40
2019-03-11T20:11:49.436Z,81.00
2019-03-11T20:14:18.786Z,81.10
2019-03-11T20:16:52.664Z,80.60
2019-03-11T20:19:23.179Z,81.40
2019-03-11T20:22:03.373Z,82.40
2019-03-11T20:24:34.098Z,82.20
2019-03-11T20:27:05.879Z,83.00
2019-03-11T20:29:35.159Z,82.90
2019-03-11T20:32:08.471Z,82.40
2019-03-11T20:34:37.716Z,83.10
2019-03-11T20:37:07.028Z,83.40
2019-03-11T20:39:36.319Z,83.80
2019-03-11T20:42:07.366Z,83.70
2019-03-11T20:44:37.398Z,84.00
2019-03-11T20:47:10.056Z,83.10
2019-03-11T20:49:40.649Z,83.00
2019-03-11T20:52:11.451Z,83.30
2019-03-11T20:54:40.764Z,84.00
2019-03-11T20:57:10.987Z,84.60
2019-03-11T20:59:40.244Z,85.10
2019-03-11T21:02:09.544Z,83.80
2019-03-11T21:04:42.440Z,83.60
2019-03-11T21:07:11.870Z,82.80
2019-03-11T21:09:50.056Z,82.30
2019-03-11T21:12:19.469Z,81.30
2019-03-11T21:14:48.642Z,81.70
2019-03-11T21:17:25.693Z,81.40
2019-03-11T21:19:49.736Z,81.60
2019-03-11T21:22:20.556Z,81.60
2019-03-11T21:24:59.537Z,80.90
2019-03-11T21:27:23.449Z,81.50
2019-03-11T21:29:52.001Z,81.90
2019-03-11T21:32:22.386Z,81.80
2019-03-11T21:34:51.459Z,81.80
2019-03-11T21:37:20.719Z,81.20
2019-03-11T21:39:49.682Z,81.40
2019-03-11T21:42:19.199Z,81.30
2019-03-11T21:44:48.557Z,81.00
2019-03-11T21:47:17.856Z,81.30
2019-03-11T21:49:46.886Z,82.40
2019-03-11T21:52:15.888Z,82.10
2019-03-11T21:54:47.460Z,82.50
2019-03-11T21:57:15.738Z,83.10
2019-03-11T21:59:45.289Z,83.50
2019-03-11T22:02:14.576Z,83.80
2019-03-11T22:04:43.560Z,83.60
2019-03-11T22:07:12.861Z,83.90
2019-03-11T22:09:42.162Z,85.20
2019-03-11T22:12:11.160Z,85.90
2019-03-11T22:14:40.456Z,86.40
2019-03-11T22:17:09.808Z,86.50
2019-03-11T22:19:39.058Z,86.80
2019-03-11T22:22:08.356Z,87.40
2019-03-11T22:24:37.348Z,88.00
2019-03-11T22:27:06.352Z,88.30
2019-03-11T22:29:35.642Z,88.40
2019-03-11T22:32:04.634Z,88.70
2019-03-11T22:34:33.632Z,89.10
2019-03-11T22:37:02.930Z,88.70
2019-03-11T22:39:31.926Z,88.80
2019-03-11T22:42:01.222Z,88.50
2019-03-11T22:44:30.186Z,88.60
2019-03-11T22:46:59.515Z,88.50
2019-03-11T22:49:28.821Z,88.60
2019-03-11T22:51:58.117Z,89.00
2019-03-11T22:54:27.118Z,88.90
2019-03-11T22:56:56.410Z,88.80
2019-03-11T22:59:25.369Z,88.80
2019-03-11T23:01:54.704Z,89.00
2019-03-11T23:04:23.807Z,88.20
2019-03-11T23:06:53.000Z,88.20
2019-03-11T23:09:22.298Z,87.70
2019-03-11T23:11:51.260Z,87.70
2019-03-11T23:14:20.590Z,87.90
2019-03-11T23:16:49.593Z,87.60
2019-03-11T23:19:18.886Z,87.40
2019-03-11T23:21:48.186Z,87.60
2019-03-11T23:24:17.486Z,87.50
2019-03-11T23:26:46.785Z,87.10
2019-03-11T23:29:15.889Z,87.40
2019-03-11T23:31:45.082Z,87.60
2019-03-11T23:34:16.223Z,87.60
2019-03-11T23:36:45.217Z,87.80
2019-03-11T23:39:14.516Z,87.60
2019-03-11T23:41:43.510Z,87.30
2019-03-11T23:44:12.809Z,87.40
2019-03-11T23:46:42.110Z,87.80
2019-03-11T23:49:11.411Z,88.10
2019-03-11T23:51:40.711Z,88.20
2019-03-11T23:54:10.011Z,88.60
2019-03-11T23:56:39.010Z,89.30
2019-03-11T23:59:08.000Z,89.80
